createdAt,value
2019-02-18T00:00:07.434Z,1000.4
2019-02-18T00:01:08.102Z,1000.4
2019-02-18T00:02:10.568Z,1000.3
2019-02-18T00:03:10.433Z,1000.4
2019-02-18T00:04:11.101Z,1000.4
2019-02-18T00:05:11.770Z,1000.4
2019-02-18T00:06:12.440Z,1000.3
2019-02-18T00:07:14.754Z,1000.3
2019-02-18T00:08:13.819Z,1000.3
2019-02-18T00:09:14.490Z,1000.3
2019-02-18T00:10:15.158Z,1000.3
2019-02-18T00:11:15.826Z,1000.4
2019-02-18T00:12:16.497Z,1000.3
2019-02-18T00:13:17.166Z,1000.3
2019-02-18T00:14:17.837Z,1000.3
2019-02-18T00:15:18.554Z,1000.3
2019-02-18T00:16:19.223Z,1000.3
2019-02-18T00:17:19.891Z,1000.3
2019-02-18T00:18:20.559Z,1000.3
2019-02-18T00:19:21.230Z,1000.3
2019-02-18T00:20:21.901Z,1000.3
2019-02-18T00:21:22.618Z,1000.3
2019-02-18T00:22:23.288Z,1000.3
2019-02-18T00:23:23.958Z,1000.3
2019-02-18T00:24:24.625Z,1000.3
2019-02-18T00:25:25.294Z,1000.3
2019-02-18T00:26:25.965Z,1000.2
2019-02-18T00:27:26.634Z,1000.2
2019-02-18T00:28:27.305Z,1000.2
2019-02-18T00:29:27.973Z,1000.2
2019-02-18T00:30:28.641Z,1000.2
2019-02-18T00:31:29.309Z,1000.2
2019-02-18T00:32:29.986Z,1000.2
2019-02-18T00:33:30.652Z,1000.2
2019-02-18T00:34:31.319Z,1000.2
2019-02-18T00:35:31.987Z,1000.2
2019-02-18T00:36:32.661Z,1000.2
2019-02-18T00:37:33.378Z,1000.2
2019-02-18T00:38:34.046Z,1000.2
2019-02-18T00:39:34.716Z,1000.3
2019-02-18T00:40:35.385Z,1000.2
2019-02-18T00:41:36.059Z,1000.2
2019-02-18T00:42:36.723Z,1000.2
2019-02-18T00:43:37.394Z,1000.3
2019-02-18T00:44:38.064Z,1000.2
2019-02-18T00:45:38.733Z,1000.2
2019-02-18T00:46:39.403Z,1000.3
2019-02-18T00:47:40.074Z,1000.3
2019-02-18T00:48:40.741Z,1000.3
2019-02-18T00:49:41.480Z,1000.3
2019-02-18T00:50:42.106Z,1000.3
2019-02-18T00:51:42.776Z,1000.3
2019-02-18T00:52:43.444Z,1000.3
2019-02-18T00:53:44.114Z,1000.3
2019-02-18T00:54:44.783Z,1000.3
2019-02-18T00:55:45.454Z,1000.3
2019-02-18T00:56:46.123Z,1000.3
2019-02-18T00:57:46.792Z,1000.3
2019-02-18T00:58:47.462Z,1000.3
2019-02-18T00:59:48.130Z,1000.3
2019-02-18T01:00:48.848Z,1000.3
2019-02-18T01:01:49.518Z,1000.3
2019-02-18T01:02:50.185Z,1000.3
2019-02-18T01:03:50.859Z,1000.3
2019-02-18T01:04:51.524Z,1000.3
2019-02-18T01:05:52.194Z,1000.3
2019-02-18T01:06:52.862Z,1000.3
2019-02-18T01:07:53.531Z,1000.4
2019-02-18T01:08:54.200Z,1000.3
2019-02-18T01:09:54.870Z,1000.3
2019-02-18T01:10:55.540Z,1000.3
2019-02-18T01:11:56.208Z,1000.3
2019-02-18T01:12:56.880Z,1000.3
2019-02-18T01:13:57.548Z,1000.3
2019-02-18T01:14:58.218Z,1000.3
2019-02-18T01:15:58.887Z,1000.3
2019-02-18T01:16:59.558Z,1000.3
2019-02-18T01:18:00.224Z,1000.3
2019-02-18T01:19:00.894Z,1000.2
2019-02-18T01:20:01.563Z,1000.3
2019-02-18T01:21:02.230Z,1000.3
2019-02-18T01:22:02.900Z,1000.3
2019-02-18T01:23:03.568Z,1000.2
2019-02-18T01:24:04.238Z,1000.3
2019-02-18T01:25:04.907Z,1000.2
2019-02-18T01:26:05.580Z,1000.3
2019-02-18T01:27:06.247Z,1000.3
2019-02-18T01:28:06.914Z,1000.2
2019-02-18T01:29:07.584Z,1000.2
2019-02-18T01:30:08.252Z,1000.3
2019-02-18T01:31:08.923Z,1000.2
2019-02-18T01:32:09.591Z,1000.3
2019-02-18T01:33:10.261Z,1000.2
2019-02-18T01:34:10.929Z,1000.2
2019-02-18T01:35:11.599Z,1000.2
2019-02-18T01:36:12.269Z,1000.2
2019-02-18T01:37:12.938Z,1000.2
2019-02-18T01:38:13.656Z,1000.2
2019-02-18T01:39:14.330Z,1000.2
2019-02-18T01:40:15.042Z,1000.2
2019-02-18T01:41:15.712Z,1000.2
2019-02-18T01:42:16.381Z,1000.2
2019-02-18T01:43:17.049Z,1000.2
2019-02-18T01:44:17.719Z,1000.1
2019-02-18T01:45:18.392Z,1000.1
2019-02-18T01:46:19.107Z,1000.1
2019-02-18T01:47:19.776Z,1000.1
2019-02-18T01:48:20.496Z,1000.0
2019-02-18T01:49:21.162Z,1000.0
2019-02-18T01:50:21.832Z,1000.0
2019-02-18T01:51:22.500Z,1000.0
2019-02-18T01:52:23.170Z,1000.0
2019-02-18T01:53:23.837Z,1000.0
2019-02-18T01:54:24.510Z,1000.0
2019-02-18T01:55:25.175Z,1000.0
2019-02-18T01:56:25.844Z,1000.0
2019-02-18T01:57:26.511Z,1000.0
2019-02-18T01:58:27.181Z,1000.0
2019-02-18T01:59:27.849Z,1000.0
2019-02-18T02:00:28.518Z,1000.0
2019-02-18T02:01:29.187Z,999.9
2019-02-18T02:02:29.853Z,999.9
2019-02-18T02:03:30.520Z,999.9
2019-02-18T02:04:31.188Z,1000.0
2019-02-18T02:05:31.859Z,1000.0
2019-02-18T02:06:32.526Z,999.9
2019-02-18T02:07:33.193Z,999.9
2019-02-18T02:08:33.860Z,999.9
2019-02-18T02:09:34.528Z,999.9
2019-02-18T02:10:35.195Z,999.9
2019-02-18T02:11:35.863Z,1000.0
2019-02-18T02:12:36.531Z,999.9
2019-02-18T02:13:37.204Z,999.9
2019-02-18T02:14:37.865Z,999.9
2019-02-18T02:15:38.540Z,999.9
2019-02-18T02:16:39.206Z,999.8
2019-02-18T02:17:39.875Z,999.8
2019-02-18T02:18:40.563Z,999.8
2019-02-18T02:19:41.210Z,999.8
2019-02-18T02:20:41.882Z,999.7
2019-02-18T02:21:42.606Z,999.8
2019-02-18T02:22:43.262Z,999.8
2019-02-18T02:23:43.928Z,999.8
2019-02-18T02:24:44.597Z,999.8
2019-02-18T02:25:45.264Z,999.8
2019-02-18T02:26:45.931Z,999.8
2019-02-18T02:27:46.599Z,999.7
2019-02-18T02:28:47.268Z,999.8
2019-02-18T02:29:47.934Z,999.7
2019-02-18T02:30:48.603Z,999.7
2019-02-18T02:31:49.269Z,999.7
2019-02-18T02:32:49.992Z,999.7
2019-02-18T02:33:50.656Z,999.7
2019-02-18T02:34:51.322Z,999.7
2019-02-18T02:35:51.994Z,999.7
2019-02-18T02:36:52.656Z,999.6
2019-02-18T02:37:53.325Z,999.7
2019-02-18T02:38:53.990Z,999.6
2019-02-18T02:39:54.657Z,999.7
2019-02-18T02:40:55.325Z,999.7
2019-02-18T02:41:55.992Z,999.6
2019-02-18T02:42:56.659Z,999.7
2019-02-18T02:43:57.326Z,999.7
2019-02-18T02:44:57.993Z,999.6
2019-02-18T02:45:58.697Z,999.6
2019-02-18T02:46:59.320Z,999.6
2019-02-18T02:47:59.987Z,999.6
2019-02-18T02:49:00.677Z,999.6
2019-02-18T02:50:01.339Z,999.7
2019-02-18T02:51:01.990Z,999.6
2019-02-18T02:52:02.655Z,999.6
2019-02-18T02:53:03.325Z,999.6
2019-02-18T02:54:03.989Z,999.6
2019-02-18T02:55:04.669Z,999.6
2019-02-18T02:56:05.374Z,999.6
2019-02-18T02:57:06.046Z,999.5
2019-02-18T02:58:06.712Z,999.5
2019-02-18T02:59:07.429Z,999.5
2019-02-18T03:00:08.099Z,999.5
2019-02-18T03:01:08.762Z,999.5
2019-02-18T03:02:09.431Z,999.5
2019-02-18T03:03:10.097Z,999.5
2019-02-18T03:04:10.769Z,999.5
2019-02-18T03:05:11.434Z,999.5
2019-02-18T03:06:12.101Z,999.5
2019-02-18T03:07:12.775Z,999.5
2019-02-18T03:08:20.334Z,999.5
2019-02-18T03:09:15.095Z,999.5
2019-02-18T03:10:15.763Z,999.5
2019-02-18T03:11:16.430Z,999.5
2019-02-18T03:12:17.099Z,999.5
2019-02-18T03:13:17.765Z,999.5
2019-02-18T03:14:18.433Z,999.4
2019-02-18T03:15:19.100Z,999.4
2019-02-18T03:16:19.767Z,999.4
2019-02-18T03:17:20.435Z,999.4
2019-02-18T03:18:21.151Z,999.4
2019-02-18T03:19:21.820Z,999.4
2019-02-18T03:20:22.486Z,999.4
2019-02-18T03:21:23.158Z,999.4
2019-02-18T03:22:23.820Z,999.4
2019-02-18T03:23:24.489Z,999.4
2019-02-18T03:24:25.177Z,999.4
2019-02-18T03:25:25.822Z,999.4
2019-02-18T03:26:26.489Z,999.4
2019-02-18T03:27:27.158Z,999.4
2019-02-18T03:28:27.834Z,999.4
2019-02-18T03:29:28.539Z,999.5
2019-02-18T03:30:29.210Z,999.5
2019-02-18T03:31:29.879Z,999.4
2019-02-18T03:32:30.542Z,999.5
2019-02-18T03:33:31.214Z,999.5
2019-02-18T03:34:31.878Z,999.5
2019-02-18T03:35:32.547Z,999.5
2019-02-18T03:36:33.261Z,999.4
2019-02-18T03:37:33.932Z,999.4
2019-02-18T03:38:34.598Z,999.5
2019-02-18T03:39:35.266Z,999.5
2019-02-18T03:40:35.932Z,999.5
2019-02-18T03:41:36.602Z,999.5
2019-02-18T03:42:37.267Z,999.5
2019-02-18T03:43:37.934Z,999.5
2019-02-18T03:44:38.619Z,999.5
2019-02-18T03:45:39.285Z,999.5
2019-02-18T03:46:39.954Z,999.5
2019-02-18T03:47:40.624Z,999.5
2019-02-18T03:48:41.288Z,999.5
2019-02-18T03:49:41.956Z,999.5
2019-02-18T03:50:42.627Z,999.4
2019-02-18T03:51:43.290Z,999.4
2019-02-18T03:52:43.956Z,999.4
2019-02-18T03:53:44.622Z,999.5
2019-02-18T03:54:45.289Z,999.5
2019-02-18T03:55:45.956Z,999.5
2019-02-18T03:56:46.625Z,999.4
2019-02-18T03:57:47.292Z,999.4
2019-02-18T03:58:47.961Z,999.5
2019-02-18T03:59:48.626Z,999.5
2019-02-18T04:00:49.352Z,999.5
2019-02-18T04:01:50.060Z,999.5
2019-02-18T04:02:50.727Z,999.5
2019-02-18T04:03:51.397Z,999.5
2019-02-18T04:04:52.074Z,999.5
2019-02-18T04:05:52.727Z,999.5
2019-02-18T04:06:53.442Z,999.5
2019-02-18T04:07:54.112Z,999.5
2019-02-18T04:08:54.779Z,999.5
2019-02-18T04:09:55.445Z,999.5
2019-02-18T04:10:56.122Z,999.5
2019-02-18T04:11:56.782Z,999.5
2019-02-18T04:12:57.449Z,999.5
2019-02-18T04:13:58.120Z,999.5
2019-02-18T04:14:58.832Z,999.5
2019-02-18T04:15:59.498Z,999.5
2019-02-18T04:17:00.167Z,999.5
2019-02-18T04:18:00.832Z,999.5
2019-02-18T04:19:01.549Z,999.5
2019-02-18T04:20:02.217Z,999.5
2019-02-18T04:21:02.884Z,999.5
2019-02-18T04:22:03.550Z,999.5
2019-02-18T04:23:04.231Z,999.5
2019-02-18T04:24:04.884Z,999.5
2019-02-18T04:25:05.550Z,999.5
2019-02-18T04:26:06.217Z,999.5
2019-02-18T04:27:06.885Z,999.5
2019-02-18T04:28:07.555Z,999.5
2019-02-18T04:29:08.221Z,999.5
2019-02-18T04:30:08.892Z,999.5
2019-02-18T04:31:09.556Z,999.5
2019-02-18T04:32:10.223Z,999.5
2019-02-18T04:33:10.890Z,999.5
2019-02-18T04:34:11.558Z,999.6
2019-02-18T04:35:12.226Z,999.6
2019-02-18T04:36:12.894Z,999.6
2019-02-18T04:37:13.561Z,999.5
2019-02-18T04:38:14.225Z,999.6
2019-02-18T04:39:14.912Z,999.5
2019-02-18T04:40:15.561Z,999.5
2019-02-18T04:41:16.226Z,999.5
2019-02-18T04:42:16.893Z,999.5
2019-02-18T04:43:17.566Z,999.6
2019-02-18T04:44:18.229Z,999.5
2019-02-18T04:45:18.898Z,999.6
2019-02-18T04:46:19.563Z,999.6
2019-02-18T04:47:20.230Z,999.6
2019-02-18T04:48:20.899Z,999.5
2019-02-18T04:49:21.566Z,999.5
2019-02-18T04:50:22.233Z,999.6
2019-02-18T04:51:22.900Z,999.5
2019-02-18T04:52:23.566Z,999.5
2019-02-18T04:53:24.234Z,999.5
2019-02-18T04:54:24.905Z,999.5
2019-02-18T04:55:25.570Z,999.5
2019-02-18T04:56:26.285Z,999.6
2019-02-18T04:57:26.952Z,999.6
2019-02-18T04:58:27.620Z,999.6
2019-02-18T04:59:28.286Z,999.6
2019-02-18T05:00:29.002Z,999.6
2019-02-18T05:01:29.680Z,999.6
2019-02-18T05:02:30.424Z,999.6
2019-02-18T05:03:31.090Z,999.6
2019-02-18T05:04:31.757Z,999.5
2019-02-18T05:05:32.431Z,999.6
2019-02-18T05:06:33.094Z,999.6
2019-02-18T05:07:33.762Z,999.6
2019-02-18T05:08:34.428Z,999.6
2019-02-18T05:09:35.096Z,999.6
2019-02-18T05:10:35.765Z,999.6
2019-02-18T05:11:36.429Z,999.6
2019-02-18T05:12:37.096Z,999.6
2019-02-18T05:13:37.765Z,999.5
2019-02-18T05:14:38.482Z,999.5
2019-02-18T05:15:40.357Z,999.5
2019-02-18T05:16:40.808Z,999.5
2019-02-18T05:17:41.478Z,999.5
2019-02-18T05:18:42.142Z,999.5
2019-02-18T05:19:42.810Z,999.5
2019-02-18T05:20:43.477Z,999.6
2019-02-18T05:21:44.145Z,999.5
2019-02-18T05:22:44.813Z,999.5
2019-02-18T05:23:45.478Z,999.5
2019-02-18T05:24:46.146Z,999.5
2019-02-18T05:25:46.813Z,999.5
2019-02-18T05:26:47.479Z,999.5
2019-02-18T05:27:48.144Z,999.5
2019-02-18T05:28:48.813Z,999.4
2019-02-18T05:29:49.485Z,999.5
2019-02-18T05:30:50.149Z,999.5
2019-02-18T05:31:50.814Z,999.5
2019-02-18T05:32:51.482Z,999.5
2019-02-18T05:33:52.152Z,999.5
2019-02-18T05:34:52.865Z,999.5
2019-02-18T05:35:55.816Z,999.5
2019-02-18T05:36:55.194Z,999.5
2019-02-18T05:37:55.860Z,999.5
2019-02-18T05:38:56.528Z,999.4
2019-02-18T05:39:57.195Z,999.5
2019-02-18T05:40:57.864Z,999.5
2019-02-18T05:41:58.530Z,999.5
2019-02-18T05:42:59.198Z,999.5
2019-02-18T05:43:59.865Z,999.5
2019-02-18T05:45:00.534Z,999.5
2019-02-18T05:46:01.206Z,999.5
2019-02-18T05:47:01.869Z,999.5
2019-02-18T05:48:02.537Z,999.5
2019-02-18T05:49:03.252Z,999.5
2019-02-18T05:50:03.922Z,999.4
2019-02-18T05:51:04.590Z,999.5
2019-02-18T05:52:05.256Z,999.5
2019-02-18T05:53:05.922Z,999.5
2019-02-18T05:54:06.607Z,999.5
2019-02-18T05:55:07.292Z,999.5
2019-02-18T05:56:07.956Z,999.5
2019-02-18T05:57:08.627Z,999.5
2019-02-18T05:58:09.346Z,999.5
2019-02-18T05:59:10.056Z,999.5
2019-02-18T06:00:10.735Z,999.5
2019-02-18T06:01:11.390Z,999.5
2019-02-18T06:02:12.057Z,999.5
2019-02-18T06:03:12.725Z,999.5
2019-02-18T06:04:13.394Z,999.5
2019-02-18T06:05:14.063Z,999.5
2019-02-18T06:06:14.732Z,999.5
2019-02-18T06:07:15.400Z,999.4
2019-02-18T06:08:16.100Z,999.5
2019-02-18T06:09:16.735Z,999.5
2019-02-18T06:10:17.405Z,999.5
2019-02-18T06:11:18.078Z,999.5
2019-02-18T06:12:18.740Z,999.5
2019-02-18T06:13:19.411Z,999.5
2019-02-18T06:14:20.095Z,999.5
2019-02-18T06:15:20.797Z,999.5
2019-02-18T06:16:21.490Z,999.5
2019-02-18T06:17:22.185Z,999.5
2019-02-18T06:18:22.853Z,999.5
2019-02-18T06:19:23.524Z,999.5
2019-02-18T06:20:24.192Z,999.5
2019-02-18T06:21:24.861Z,999.5
2019-02-18T06:22:25.531Z,999.5
2019-02-18T06:23:26.200Z,999.5
2019-02-18T06:24:26.871Z,999.5
2019-02-18T06:25:27.556Z,999.5
2019-02-18T06:26:28.258Z,999.5
2019-02-18T06:27:28.929Z,999.5
2019-02-18T06:28:29.597Z,999.5
2019-02-18T06:29:30.267Z,999.5
2019-02-18T06:30:30.936Z,999.5
2019-02-18T06:31:31.605Z,999.6
2019-02-18T06:32:32.277Z,999.6
2019-02-18T06:33:32.947Z,999.6
2019-02-18T06:34:33.615Z,999.6
2019-02-18T06:35:34.335Z,999.6
2019-02-18T06:36:35.006Z,999.5
2019-02-18T06:37:35.680Z,999.6
2019-02-18T06:38:36.348Z,999.6
2019-02-18T06:39:41.170Z,999.6
2019-02-18T06:40:38.683Z,999.7
2019-02-18T06:41:39.355Z,999.7
2019-02-18T06:42:40.023Z,999.7
2019-02-18T06:43:40.695Z,999.7
2019-02-18T06:44:41.366Z,999.7
2019-02-18T06:45:42.036Z,999.7
2019-02-18T06:46:42.708Z,999.7
2019-02-18T06:47:43.379Z,999.7
2019-02-18T06:48:44.049Z,999.7
2019-02-18T06:49:44.723Z,999.7
2019-02-18T06:50:45.392Z,999.7
2019-02-18T06:51:46.062Z,999.7
2019-02-18T06:52:46.735Z,999.7
2019-02-18T06:53:47.406Z,999.7
2019-02-18T06:54:48.075Z,999.7
2019-02-18T06:55:48.756Z,999.7
2019-02-18T06:56:49.425Z,999.7
2019-02-18T06:57:50.138Z,999.7
2019-02-18T06:58:50.808Z,999.7
2019-02-18T06:59:51.480Z,999.8
2019-02-18T07:00:52.149Z,999.8
2019-02-18T07:01:52.820Z,999.8
2019-02-18T07:02:53.493Z,999.9
2019-02-18T07:03:54.163Z,999.8
2019-02-18T07:04:54.901Z,999.8
2019-02-18T07:05:55.603Z,999.8
2019-02-18T07:06:56.278Z,999.8
2019-02-18T07:07:56.949Z,999.8
2019-02-18T07:08:57.619Z,999.8
2019-02-18T07:09:58.291Z,999.8
2019-02-18T07:10:58.962Z,999.8
2019-02-18T07:11:59.635Z,999.8
2019-02-18T07:13:00.306Z,999.8
2019-02-18T07:14:00.977Z,999.8
2019-02-18T07:15:01.705Z,999.8
2019-02-18T07:16:02.420Z,999.8
2019-02-18T07:17:03.093Z,999.8
2019-02-18T07:18:03.765Z,999.8
2019-02-18T07:19:04.437Z,999.8
2019-02-18T07:20:05.111Z,999.8
2019-02-18T07:21:05.782Z,999.8
2019-02-18T07:22:06.454Z,999.9
2019-02-18T07:23:07.126Z,999.8
2019-02-18T07:24:07.798Z,999.9
2019-02-18T07:25:08.469Z,999.8
2019-02-18T07:26:09.191Z,999.8
2019-02-18T07:27:09.862Z,999.8
2019-02-18T07:28:10.535Z,999.8
2019-02-18T07:29:11.259Z,999.8
2019-02-18T07:30:11.933Z,999.9
2019-02-18T07:31:12.605Z,999.9
2019-02-18T07:32:13.276Z,999.9
2019-02-18T07:33:13.949Z,999.8
2019-02-18T07:34:14.622Z,999.8
2019-02-18T07:35:15.293Z,999.8
2019-02-18T07:36:15.966Z,999.8
2019-02-18T07:37:16.637Z,999.8
2019-02-18T07:38:17.321Z,999.9
2019-02-18T07:39:17.982Z,999.8
2019-02-18T07:40:18.700Z,999.8
2019-02-18T07:41:19.375Z,999.8
2019-02-18T07:42:20.047Z,999.9
2019-02-18T07:43:22.987Z,999.8
2019-02-18T07:44:22.382Z,999.8
2019-02-18T07:45:23.054Z,999.8
2019-02-18T07:46:23.729Z,999.9
2019-02-18T07:47:24.399Z,999.9
2019-02-18T07:48:25.072Z,999.9
2019-02-18T07:49:25.750Z,999.8
2019-02-18T07:50:26.421Z,999.9
2019-02-18T07:51:27.093Z,999.8
2019-02-18T07:52:27.760Z,999.8
2019-02-18T07:53:28.432Z,999.7
2019-02-18T07:54:29.103Z,999.8
2019-02-18T07:55:29.776Z,999.8
2019-02-18T07:56:30.449Z,999.8
2019-02-18T07:57:31.122Z,999.9
2019-02-18T07:58:31.798Z,999.8
2019-02-18T07:59:32.467Z,999.8
2019-02-18T08:00:33.189Z,999.8
2019-02-18T08:01:33.867Z,999.8
2019-02-18T08:02:34.533Z,999.8
2019-02-18T08:03:35.205Z,999.8
2019-02-18T08:04:35.878Z,999.8
2019-02-18T08:05:36.552Z,999.9
2019-02-18T08:06:37.224Z,999.8
2019-02-18T08:07:37.895Z,999.8
2019-02-18T08:08:38.569Z,999.8
2019-02-18T08:09:39.240Z,999.8
2019-02-18T08:10:39.913Z,999.8
2019-02-18T08:11:40.634Z,999.8
2019-02-18T08:12:41.311Z,999.7
2019-02-18T08:13:41.981Z,999.8
2019-02-18T08:14:42.652Z,999.7
2019-02-18T08:15:43.333Z,999.7
2019-02-18T08:16:44.054Z,999.7
2019-02-18T08:17:44.726Z,999.7
2019-02-18T08:18:45.400Z,999.7
2019-02-18T08:19:46.095Z,999.7
2019-02-18T08:20:46.736Z,999.7
2019-02-18T08:21:47.408Z,999.7
2019-02-18T08:22:48.083Z,999.7
2019-02-18T08:23:48.756Z,999.7
2019-02-18T08:24:49.480Z,999.7
2019-02-18T08:25:50.153Z,999.7
2019-02-18T08:26:50.834Z,999.7
2019-02-18T08:27:51.497Z,999.7
2019-02-18T08:28:52.170Z,999.7
2019-02-18T08:29:52.842Z,999.7
2019-02-18T08:30:53.516Z,999.7
2019-02-18T08:31:54.188Z,999.7
2019-02-18T08:32:54.862Z,999.6
2019-02-18T08:33:55.538Z,999.6
2019-02-18T08:34:56.213Z,999.7
2019-02-18T08:35:56.881Z,999.6
2019-02-18T08:36:57.555Z,999.7
2019-02-18T08:37:58.229Z,999.7
2019-02-18T08:38:58.899Z,999.6
2019-02-18T08:39:59.573Z,999.6
2019-02-18T08:41:00.246Z,999.6
2019-02-18T08:42:00.920Z,999.6
2019-02-18T08:43:01.593Z,999.6
2019-02-18T08:44:02.266Z,999.6
2019-02-18T08:45:02.941Z,999.6
2019-02-18T08:46:03.612Z,999.6
2019-02-18T08:47:04.286Z,999.5
2019-02-18T08:48:04.963Z,999.5
2019-02-18T08:49:05.681Z,999.5
2019-02-18T08:50:06.355Z,999.5
2019-02-18T08:51:07.029Z,999.5
2019-02-18T08:52:07.701Z,999.5
2019-02-18T08:53:08.379Z,999.5
2019-02-18T08:54:09.048Z,999.5
2019-02-18T08:55:09.723Z,999.5
2019-02-18T08:56:10.396Z,999.5
2019-02-18T08:57:11.067Z,999.5
2019-02-18T08:58:11.741Z,999.5
2019-02-18T08:59:12.412Z,999.5
2019-02-18T09:00:13.085Z,999.6
2019-02-18T09:01:13.775Z,999.5
2019-02-18T09:02:14.439Z,999.6
2019-02-18T09:03:15.180Z,999.5
2019-02-18T09:04:15.876Z,999.6
2019-02-18T09:05:16.628Z,999.5
2019-02-18T09:06:17.269Z,999.5
2019-02-18T09:07:17.945Z,999.5
2019-02-18T09:08:18.615Z,999.5
2019-02-18T09:09:19.290Z,999.5
2019-02-18T09:10:19.964Z,999.5
2019-02-18T09:11:20.651Z,999.5
2019-02-18T09:12:21.407Z,999.5
2019-02-18T09:13:22.075Z,999.5
2019-02-18T09:14:22.748Z,999.5
2019-02-18T09:15:23.422Z,999.5
2019-02-18T09:16:24.094Z,999.5
2019-02-18T09:17:24.769Z,999.5
2019-02-18T09:18:25.444Z,999.4
2019-02-18T09:19:26.116Z,999.5
2019-02-18T09:20:26.791Z,999.4
2019-02-18T09:21:27.464Z,999.4
2019-02-18T09:22:28.139Z,999.5
2019-02-18T09:23:28.813Z,999.4
2019-02-18T09:24:29.491Z,999.5
2019-02-18T09:25:30.161Z,999.4
2019-02-18T09:26:30.836Z,999.5
2019-02-18T09:27:31.511Z,999.5
2019-02-18T09:28:32.183Z,999.5
2019-02-18T09:29:32.860Z,999.5
2019-02-18T09:30:33.534Z,999.4
2019-02-18T09:31:34.210Z,999.5
2019-02-18T09:32:34.884Z,999.4
2019-02-18T09:33:35.558Z,999.4
2019-02-18T09:34:36.234Z,999.4
2019-02-18T09:35:36.988Z,999.4
2019-02-18T09:36:37.624Z,999.4
2019-02-18T09:37:38.299Z,999.4
2019-02-18T09:38:38.980Z,999.4
2019-02-18T09:39:39.649Z,999.3
2019-02-18T09:41:41.989Z,999.3
2019-02-18T09:42:42.666Z,999.3
2019-02-18T09:43:43.347Z,999.3
2019-02-18T09:44:44.017Z,999.3
2019-02-18T09:45:44.772Z,999.3
2019-02-18T09:46:45.398Z,999.3
2019-02-18T09:47:46.074Z,999.3
2019-02-18T09:48:46.803Z,999.3
2019-02-18T09:49:47.478Z,999.3
2019-02-18T09:50:48.155Z,999.3
2019-02-18T09:51:48.881Z,999.4
2019-02-18T09:52:49.564Z,999.3
2019-02-18T09:53:50.231Z,999.4
2019-02-18T09:54:50.906Z,999.3
2019-02-18T09:55:51.585Z,999.3
2019-02-18T09:56:52.262Z,999.3
2019-02-18T09:57:52.978Z,999.3
2019-02-18T09:58:53.653Z,999.3
2019-02-18T09:59:54.378Z,999.2
2019-02-18T10:00:55.056Z,999.3
2019-02-18T10:01:55.733Z,999.3
2019-02-18T10:02:56.405Z,999.3
2019-02-18T10:03:57.082Z,999.3
2019-02-18T10:04:57.758Z,999.3
2019-02-18T10:05:58.433Z,999.3
2019-02-18T10:06:59.114Z,999.3
2019-02-18T10:07:59.790Z,999.3
2019-02-18T10:09:00.464Z,999.3
2019-02-18T10:10:01.140Z,999.2
2019-02-18T10:11:01.818Z,999.3
2019-02-18T10:12:02.497Z,999.3
2019-02-18T10:13:03.177Z,999.3
2019-02-18T10:14:03.856Z,999.3
2019-02-18T10:15:04.530Z,999.2
2019-02-18T10:16:05.207Z,999.3
2019-02-18T10:17:05.888Z,999.3
2019-02-18T10:18:06.566Z,999.2
2019-02-18T10:19:07.242Z,999.2
2019-02-18T10:20:07.920Z,999.2
2019-02-18T10:21:08.597Z,999.2
2019-02-18T10:22:09.277Z,999.2
2019-02-18T10:23:09.955Z,999.2
2019-02-18T10:24:10.632Z,999.2
2019-02-18T10:25:11.328Z,999.2
2019-02-18T10:26:12.037Z,999.2
2019-02-18T10:27:12.716Z,999.2
2019-02-18T10:28:13.394Z,999.2
2019-02-18T10:29:14.075Z,999.2
2019-02-18T10:30:14.753Z,999.2
2019-02-18T10:31:15.430Z,999.2
2019-02-18T10:32:16.110Z,999.1
2019-02-18T10:33:16.786Z,999.1
2019-02-18T10:34:17.467Z,999.2
2019-02-18T10:35:18.145Z,999.1
2019-02-18T10:36:18.823Z,999.1
2019-02-18T10:37:19.538Z,999.1
2019-02-18T10:38:20.233Z,999.1
2019-02-18T10:39:20.958Z,999.1
2019-02-18T10:40:21.638Z,999.1
2019-02-18T10:41:22.316Z,999.1
2019-02-18T10:42:23.030Z,999.1
2019-02-18T10:43:32.181Z,999.1
2019-02-18T10:44:24.437Z,999.1
2019-02-18T10:45:25.115Z,999.1
2019-02-18T10:46:25.798Z,999.1
2019-02-18T10:47:26.518Z,999.1
2019-02-18T10:48:27.195Z,999.1
2019-02-18T10:49:27.875Z,999.1
2019-02-18T10:50:28.552Z,999.1
2019-02-18T10:51:29.501Z,999.1
2019-02-18T10:52:30.182Z,999.1
2019-02-18T10:53:30.860Z,999.1
2019-02-18T10:54:31.539Z,999.1
2019-02-18T10:55:32.332Z,999.1
2019-02-18T10:56:32.982Z,999.1
2019-02-18T10:57:33.662Z,999.1
2019-02-18T10:58:34.344Z,999.0
2019-02-18T10:59:35.282Z,999.0
2019-02-18T11:00:35.961Z,999.0
2019-02-18T11:01:36.640Z,999.0
2019-02-18T11:02:37.322Z,999.0
2019-02-18T11:03:37.999Z,999.0
2019-02-18T11:04:38.679Z,998.9
2019-02-18T11:05:39.359Z,998.9
2019-02-18T11:06:40.037Z,999.0
2019-02-18T11:07:40.915Z,998.9
2019-02-18T11:08:41.594Z,998.9
2019-02-18T11:09:42.272Z,998.9
2019-02-18T11:10:42.954Z,998.9
2019-02-18T11:11:43.632Z,998.9
2019-02-18T11:12:44.311Z,998.9
2019-02-18T11:13:44.990Z,998.8
2019-02-18T11:14:45.669Z,998.8
2019-02-18T11:15:46.349Z,998.8
2019-02-18T11:16:47.029Z,998.8
2019-02-18T11:17:47.706Z,998.8
2019-02-18T11:18:48.388Z,998.8
2019-02-18T11:19:49.066Z,998.7
2019-02-18T11:20:50.010Z,998.7
2019-02-18T11:21:50.692Z,998.7
2019-02-18T11:22:51.368Z,998.7
2019-02-18T11:23:52.047Z,998.6
2019-02-18T11:24:52.728Z,998.6
2019-02-18T11:25:53.407Z,998.6
2019-02-18T11:26:54.086Z,998.6
2019-02-18T11:27:54.769Z,998.6
2019-02-18T11:28:55.453Z,998.6
2019-02-18T11:29:56.126Z,998.5
2019-02-18T11:30:56.808Z,998.5
2019-02-18T11:31:57.510Z,998.5
2019-02-18T11:32:58.189Z,998.6
2019-02-18T11:33:58.870Z,998.5
2019-02-18T11:35:00.636Z,998.5
2019-02-18T11:36:01.224Z,998.5
2019-02-18T11:37:01.904Z,998.5
2019-02-18T11:38:02.641Z,998.5
2019-02-18T11:39:03.365Z,998.5
2019-02-18T11:40:04.049Z,998.5
2019-02-18T11:41:04.777Z,998.5
2019-02-18T11:42:05.466Z,998.5
2019-02-18T11:43:06.179Z,998.4
2019-02-18T11:44:06.859Z,998.4
2019-02-18T11:45:07.537Z,998.4
2019-02-18T11:46:08.218Z,998.4
2019-02-18T11:47:09.122Z,998.4
2019-02-18T11:48:09.801Z,998.4
2019-02-18T11:49:10.482Z,998.3
2019-02-18T11:50:11.163Z,998.3
2019-02-18T11:51:11.844Z,998.3
2019-02-18T11:52:12.523Z,998.3
2019-02-18T11:53:13.203Z,998.3
2019-02-18T11:54:13.883Z,998.3
2019-02-18T11:55:14.568Z,998.3
2019-02-18T11:56:15.577Z,998.2
2019-02-18T11:57:16.256Z,998.2
2019-02-18T11:58:16.935Z,998.2
2019-02-18T11:59:24.294Z,998.2
2019-02-18T12:00:19.289Z,998.2
2019-02-18T12:01:19.971Z,998.2
2019-02-18T12:02:20.650Z,998.2
2019-02-18T12:03:21.338Z,998.2
2019-02-18T12:04:22.011Z,998.2
2019-02-18T12:05:22.690Z,998.2
2019-02-18T12:06:23.372Z,998.1
2019-02-18T12:07:24.058Z,998.2
2019-02-18T12:08:24.734Z,998.2
2019-02-18T12:09:25.421Z,998.1
2019-02-18T12:10:26.095Z,998.1
2019-02-18T12:11:26.776Z,998.1
2019-02-18T12:12:27.456Z,998.0
2019-02-18T12:13:28.446Z,998.0
2019-02-18T12:14:29.124Z,998.0
2019-02-18T12:15:29.806Z,998.0
2019-02-18T12:16:30.488Z,998.0
2019-02-18T12:17:31.182Z,998.0
2019-02-18T12:18:31.863Z,997.9
2019-02-18T12:19:32.545Z,998.0
2019-02-18T12:20:33.227Z,997.9
2019-02-18T12:21:34.216Z,998.0
2019-02-18T12:22:34.897Z,997.9
2019-02-18T12:23:35.602Z,997.9
2019-02-18T12:24:36.281Z,997.9
2019-02-18T12:25:36.966Z,997.9
2019-02-18T12:26:37.690Z,997.9
2019-02-18T12:27:38.373Z,997.8
2019-02-18T12:28:39.062Z,997.8
2019-02-18T12:29:39.776Z,997.8
2019-02-18T12:30:40.456Z,997.8
2019-02-18T12:31:41.136Z,997.8
2019-02-18T12:32:41.817Z,997.8
2019-02-18T12:33:42.499Z,997.7
2019-02-18T12:34:43.179Z,997.7
2019-02-18T12:35:43.860Z,997.6
2019-02-18T12:36:44.539Z,997.6
2019-02-18T12:37:54.725Z,997.5
2019-02-18T12:38:46.984Z,997.5
2019-02-18T12:39:47.664Z,997.5
2019-02-18T12:40:48.354Z,997.5
2019-02-18T12:41:49.202Z,997.5
2019-02-18T12:42:49.864Z,997.4
2019-02-18T12:43:50.542Z,997.4
2019-02-18T12:44:51.228Z,997.4
2019-02-18T12:45:51.954Z,997.4
2019-02-18T12:46:52.820Z,997.4
2019-02-18T12:47:53.501Z,997.4
2019-02-18T12:48:54.183Z,997.4
2019-02-18T12:49:54.863Z,997.3
2019-02-18T12:50:55.544Z,997.3
2019-02-18T12:51:56.224Z,997.4
2019-02-18T12:52:56.906Z,997.3
2019-02-18T12:54:04.799Z,997.3
2019-02-18T12:55:00.386Z,997.3
2019-02-18T12:55:59.984Z,997.3
2019-02-18T12:57:00.667Z,997.3
2019-02-18T12:58:01.349Z,997.3